Time;durP1;ratioP1;P1;durP2;ratioP2;P2;SDS_P1;SDS_P2;PMS_P1;PMS_P2;Temp;Humidity;BMP_temperature;BMP_pressure;BME280_temperature;BME280_humidity;BME280_pressure;Samples;Min_cycle;Max_cycle;Signal;HPM_P1;HPM_P2
2022/08/08 03:27:01;;;;;;;9.93;8.93;;;;;;;;;;6212368;27;1434979;-51
2022/08/08 03:30:06;;;;;;;11.57;8.37;;;;;;;;;;6253983;27;106277;-51
2022/08/08 03:33:16;;;;;;;9.50;8.70;;;;;;;;;;6262622;27;105759;-52
2022/08/08 03:36:40;;;;;;;9.63;8.83;;;;;;;;;;6252490;27;106273;-54
2022/08/08 03:39:43;;;;;;;10.10;9.40;;;;;;;;;;6261362;27;106310;-53
2022/08/08 03:43:03;;;;;;;9.13;8.50;;;;;;;;;;6260677;27;105883;-52
2022/08/08 03:46:21;;;;;;;9.37;8.67;;;;;;;;;;6262279;27;105673;-51
2022/08/08 03:49:33;;;;;;;8.63;7.93;;;;;;;;;;6250452;27;105688;-52
2022/08/08 03:52:56;;;;;;;10.30;9.50;;;;;;;;;;6261642;27;105714;-51
2022/08/08 03:56:01;;;;;;;9.13;8.43;;;;;;;;;;6256831;27;105893;-51
2022/08/08 03:59:12;;;;;;;9.23;8.40;;;;;;;;;;6248138;27;107116;-52
2022/08/08 04:02:24;;;;;;;9.53;8.83;;;;;;;;;;6259877;27;105627;-51
2022/08/08 04:05:47;;;;;;;10.87;9.80;;;;;;;;;;6258659;27;105867;-51
2022/08/08 04:08:51;;;;;;;11.43;10.30;;;;;;;;;;6256200;27;105750;-52
2022/08/08 04:11:54;;;;;;;9.90;9.13;;;;;;;;;;6244235;27;106599;-50
2022/08/08 04:15:04;;;;;;;11.93;8.90;;;;;;;;;;6259294;27;106281;-50
2022/08/08 04:18:07;;;;;;;13.33;9.97;;;;;;;;;;6260407;27;105960;-52
2022/08/08 04:21:18;;;;;;;16.13;8.87;;;;;;;;;;6254520;27;105623;-51
2022/08/08 04:24:25;;;;;;;9.57;8.67;;;;;;;;;;6253807;27;105730;-51
2022/08/08 04:27:32;;;;;;;15.07;9.20;;;;;;;;;;6259671;27;105619;-51
2022/08/08 04:30:57;;;;;;;11.33;9.27;;;;;;;;;;6257362;27;105680;-51
2022/08/08 04:34:02;;;;;;;11.00;9.77;;;;;;;;;;6247359;27;106709;-51
2022/08/08 04:37:54;;;;;;;12.90;8.90;;;;;;;27.35;45.67;95239.03;5970301;27;103086;-51
2022/08/08 04:40:58;;;;;;;10.53;9.43;;;;;;;27.09;44.21;95236.63;6154017;27;103933;-52
2022/08/08 04:44:01;;;;;;;18.17;13.00;;;;;;;27.05;44.71;95241.91;6217402;27;104023;-52
2022/08/08 04:47:07;;;;;;;16.10;14.53;;;;;;;27.12;45.10;95241.34;6200392;28;104278;-52
2022/08/08 04:50:14;;;;;;;15.00;13.60;;;;;;;27.24;44.60;95240.59;6205027;28;103020;-51
2022/08/08 04:53:28;;;;;;;13.63;12.33;;;;;;;27.22;44.92;95243.63;6206035;28;102988;-52
2022/08/08 04:56:52;;;;;;;12.67;11.43;;;;;;;27.18;44.89;95246.16;6195045;28;105551;-51
2022/08/08 04:59:55;;;;;;;13.73;12.37;;;;;;;27.24;44.78;95246.75;6206045;28;103772;-51
2022/08/08 05:03:01;;;;;;;14.03;12.70;;;;;;;27.20;44.88;95248.50;6204522;28;103013;-51
2022/08/08 05:06:08;;;;;;;13.93;12.70;;;;;;;27.06;45.29;95246.16;6204328;28;103096;-50
2022/08/08 05:09:21;;;;;;;15.77;14.33;;;;;;;26.77;46.02;95252.44;6178482;28;104858;-53
2022/08/08 05:12:24;;;;;;;15.23;13.70;;;;;;;26.68;45.95;95253.63;6179318;28;103144;-50
2022/08/08 05:15:31;;;;;;;18.17;13.30;;;;;;;26.70;46.35;95257.53;6181601;28;102935;-51
2022/08/08 05:18:55;;;;;;;14.20;13.00;;;;;;;26.72;45.74;95258.03;6170199;28;102748;-56
2022/08/08 05:21:59;;;;;;;15.00;13.70;;;;;;;26.69;45.86;95266.72;6178775;28;104382;-52
2022/08/08 05:25:04;;;;;;;14.47;13.00;;;;;;;26.60;46.20;95257.94;6178084;28;103957;-52
2022/08/08 05:28:08;;;;;;;13.30;12.10;;;;;;;26.64;46.12;95261.56;6178578;28;103921;-52
2022/08/08 05:31:12;;;;;;;14.03;12.80;;;;;;;26.54;46.57;95268.06;6168884;28;104990;-52
2022/08/08 05:34:40;;;;;;;12.23;11.23;;;;;;;26.56;46.64;95265.09;6178840;28;103248;-52
2022/08/08 05:37:48;;;;;;;13.80;12.60;;;;;;;26.51;46.53;95267.94;6180412;28;103133;-52
2022/08/08 05:40:58;;;;;;;12.80;11.80;;;;;;;26.68;46.72;95265.16;6174640;28;103113;-49
2022/08/08 05:44:05;;;;;;;12.37;11.37;;;;;;;26.96;46.42;95267.28;6176878;28;102670;-48
2022/08/08 05:47:10;;;;;;;12.23;11.23;;;;;;;27.13;45.95;95259.03;6174776;28;104034;-48
2022/08/08 05:50:18;;;;;;;12.17;11.37;;;;;;;27.29;45.22;95262.69;6163982;28;103116;-49
2022/08/08 05:53:24;;;;;;;13.03;11.63;;;;;;;27.42;45.03;95272.34;6152326;28;104337;-49
2022/08/08 05:56:51;;;;;;;12.20;11.10;;;;;;;27.60;45.06;95266.75;6163091;28;102812;-50
2022/08/08 05:59:57;;;;;;;12.67;11.40;;;;;;;27.65;44.83;95271.88;6163544;28;103943;-49
2022/08/08 06:03:22;;;;;;;12.30;11.30;;;;;;;27.74;44.50;95269.88;6158198;28;102787;-49
2022/08/08 06:06:29;;;;;;;10.77;9.90;;;;;;;27.85;43.93;95272.88;6157423;28;104626;-49
2022/08/08 06:09:38;;;;;;;12.73;11.47;;;;;;;27.93;44.64;95272.81;6163664;28;104047;-49
2022/08/08 06:13:03;;;;;;;11.20;10.30;;;;;;;27.92;44.60;95268.56;6163157;28;105217;-49
2022/08/08 06:16:11;;;;;;;11.10;10.20;;;;;;;28.01;44.65;95273.81;6155092;28;104202;-48
2022/08/08 06:19:16;;;;;;;12.70;11.50;;;;;;;27.89;44.95;95282.69;6184324;28;104136;-47
2022/08/08 06:22:19;;;;;;;13.10;11.87;;;;;;;27.93;44.56;95272.81;6179881;28;103871;-48
2022/08/08 06:25:42;;;;;;;12.70;11.50;;;;;;;27.72;44.34;95277.47;6184153;28;103087;-49
2022/08/08 06:29:09;;;;;;;13.50;12.10;;;;;;;27.51;44.88;95272.22;6181744;28;104833;-48
2022/08/08 06:32:32;;;;;;;11.77;10.87;;;;;;;27.55;44.99;95280.38;6182869;28;102859;-49
2022/08/08 06:35:39;;;;;;;11.77;10.67;;;;;;;27.71;44.81;95281.28;6186908;28;103080;-48
2022/08/08 06:39:03;;;;;;;12.33;11.27;;;;;;;27.78;44.47;95281.53;6177035;28;103981;-48
2022/08/08 06:42:11;;;;;;;11.10;10.20;;;;;;;27.67;44.90;95281.19;6187332;28;103693;-48
2022/08/08 06:45:19;;;;;;;11.30;10.30;;;;;;;27.88;44.59;95291.06;6186925;28;103937;-48
2022/08/08 06:48:22;;;;;;;12.27;11.03;;;;;;;28.09;44.16;95280.19;6178934;28;102931;-48
2022/08/08 06:51:28;;;;;;;11.87;10.67;;;;;;;27.99;44.45;95279.53;6152292;28;103895;-48
2022/08/08 06:54:49;;;;;;;11.70;10.63;;;;;;;27.84;44.50;95287.47;6161819;28;103969;-49
2022/08/08 06:57:52;;;;;;;11.87;10.97;;;;;;;27.66;45.45;95286.91;6161978;28;103251;-51
2022/08/08 07:01:02;;;;;;;12.33;11.20;;;;;;;27.33;45.45;95274.31;6151188;28;105949;-52
2022/08/08 07:04:34;;;;;;;12.30;11.00;;;;;;;27.21;46.44;95287.69;6161975;28;102934;-52
2022/08/08 07:08:03;;;;;;;11.57;10.67;;;;;;;27.08;46.55;95286.13;6162352;28;102992;-52
2022/08/08 07:11:09;;;;;;;11.13;10.33;;;;;;;26.96;46.65;95289.53;6161709;28;104249;-52
2022/08/08 07:14:31;;;;;;;13.30;11.90;;;;;;;27.00;45.65;95289.66;6155786;28;103046;-52
2022/08/08 07:17:41;;;;;;;11.07;10.03;;;;;;;27.03;45.42;95283.63;6161369;28;103265;-51
2022/08/08 07:21:07;;;;;;;10.40;9.40;;;;;;;27.06;45.02;95282.97;6161932;28;104049;-52
2022/08/08 07:24:26;;;;;;;11.70;10.47;;;;;;;27.16;45.10;95282.53;6151461;28;103984;-51
2022/08/08 07:27:36;;;;;;;10.53;9.63;;;;;;;27.46;44.53;95283.19;6161796;28;104175;-52
2022/08/08 07:30:59;;;;;;;9.00;8.20;;;;;;;27.80;43.92;95279.28;6162176;28;104820;-51
2022/08/08 07:34:04;;;;;;;9.00;8.27;;;;;;;28.26;43.38;95286.13;6157726;28;103007;-51
2022/08/08 07:37:13;;;;;;;9.23;8.30;;;;;;;28.26;41.98;95280.72;6156254;28;104074;-51
2022/08/08 07:40:17;;;;;;;9.00;8.13;;;;;;;28.32;42.84;95289.34;6161352;28;103058;-51
2022/08/08 07:43:33;;;;;;;8.67;7.97;;;;;;;28.58;42.23;95286.28;6161875;28;104111;-51
2022/08/08 07:46:39;;;;;;;7.90;7.03;;;;;;;28.68;41.83;95285.00;6151683;28;102856;-51
2022/08/08 07:49:44;;;;;;;9.03;7.17;;;;;;;28.69;41.16;95281.19;6162519;28;103930;-51
2022/08/08 07:52:56;;;;;;;8.03;6.80;;;;;;;28.59;40.46;95264.41;6161421;28;103967;-51
2022/08/08 07:56:01;;;;;;;8.87;7.17;;;;;;;28.89;40.76;95270.19;6162359;28;103955;-52
2022/08/08 07:59:12;;;;;;;8.50;7.60;;;;;;;28.71;41.25;95268.94;6151854;28;104093;-52
2022/08/08 08:02:22;;;;;;;8.90;8.20;;;;;;;28.70;41.77;95266.59;6161778;28;104307;-55
2022/08/08 08:05:44;;;;;;;8.63;6.97;;;;;;;28.67;41.45;95264.59;6161710;28;104101;-51
2022/08/08 08:08:56;;;;;;;21.90;10.80;;;;;;;28.30;41.95;95270.06;6150788;28;103820;-50
2022/08/08 08:12:00;;;;;;;18.80;10.73;;;;;;;28.20;42.20;95265.13;6160015;28;103248;-52
2022/08/08 08:15:06;;;;;;;16.63;9.20;;;;;;;28.01;43.12;95269.22;6160403;28;104161;-48
2022/08/08 08:18:10;;;;;;;8.47;7.60;;;;;;;28.37;42.28;95259.50;6161374;28;103093;-49
2022/08/08 08:21:18;;;;;;;59.20;47.60;;;;;;;28.04;42.94;95263.13;6150344;28;103135;-48
2022/08/08 08:24:42;;;;;;;26.03;21.80;;;;;;;27.67;42.96;95262.34;6159818;28;102872;-48
2022/08/08 08:27:48;;;;;;;19.57;12.70;;;;;;;28.13;42.46;95254.19;6161079;28;104183;-48
2022/08/08 08:30:53;;;;;;;18.40;13.20;;;;;;;28.19;42.00;95263.56;6155607;28;103389;-48
2022/08/08 08:33:56;;;;;;;18.40;13.33;;;;;;;28.08;41.91;95249.81;6154631;28;103006;-46
2022/08/08 08:37:01;;;;;;;14.00;12.63;;;;;;;28.12;41.13;95255.31;6159625;28;104323;-48
2022/08/08 08:40:12;;;;;;;9.57;8.73;;;;;;;28.14;41.59;95253.06;6160467;28;103003;-48
2022/08/08 08:43:17;;;;;;;15.17;8.27;;;;;;;28.33;41.24;95247.84;6150479;28;104368;-48
2022/08/08 08:46:21;;;;;;;14.37;6.70;;;;;;;28.56;40.25;95243.53;6160880;28;104239;-50
2022/08/08 08:49:27;;;;;;;8.47;7.03;;;;;;;28.69;40.74;95248.88;6160910;28;103490;-51
2022/08/08 08:52:42;;;;;;;7.70;6.43;;;;;;;28.97;39.93;95248.84;6160849;28;104543;-50
2022/08/08 08:56:03;;;;;;;7.17;6.57;;;;;;;28.96;40.08;95237.28;6151009;28;105041;-49
2022/08/08 08:59:07;;;;;;;7.13;6.50;;;;;;;28.93;39.58;95228.00;6160748;28;104091;-50
2022/08/08 09:02:20;;;;;;;6.40;5.90;;;;;;;29.00;38.63;95226.59;6160616;28;102997;-48
2022/08/08 09:05:25;;;;;;;9.03;6.60;;;;;;;28.82;39.71;95229.63;6154654;28;103993;-50
2022/08/08 09:08:54;;;;;;;7.00;5.90;;;;;;;28.51;40.74;95233.00;6159897;28;102721;-50
2022/08/08 09:11:58;;;;;;;6.60;6.00;;;;;;;28.33;40.78;95223.63;6160393;28;102738;-49
2022/08/08 09:15:09;;;;;;;9.83;7.23;;;;;;;28.12;41.67;95225.69;6160336;28;103916;-50
2022/08/08 09:18:16;;;;;;;12.10;10.87;;;;;;;28.32;40.03;95225.53;6149498;28;104355;-50
2022/08/08 09:21:21;;;;;;;12.77;10.07;;;;;;;28.26;40.59;95226.13;6159464;28;104130;-51
2022/08/08 09:24:47;;;;;;;11.10;9.37;;;;;;;28.35;40.38;95213.28;6163854;28;103058;-49
2022/08/08 09:27:54;;;;;;;7.97;7.27;;;;;;;28.08;40.59;95211.38;6159490;28;103997;-50
2022/08/08 09:31:11;;;;;;;6.00;5.50;;;;;;;28.20;39.37;95214.78;6159791;28;103731;-51
2022/08/08 09:34:18;;;;;;;10.00;6.40;;;;;;;28.12;40.33;95217.63;6164265;28;102705;-50
2022/08/08 09:37:44;;;;;;;7.77;5.60;;;;;;;28.25;40.05;95197.63;6163735;28;104029;-51
2022/08/08 09:41:06;;;;;;;6.13;5.63;;;;;;;28.70;39.77;95197.34;6153957;28;102967;-51
2022/08/08 09:44:19;;;;;;;7.23;5.83;;;;;;;28.86;39.28;95194.69;6163835;28;103891;-51
2022/08/08 09:47:37;;;;;;;8.57;5.60;;;;;;;28.96;39.25;95188.78;6164062;28;103038;-50
2022/08/08 09:51:01;;;;;;;5.20;4.60;;;;;;;29.14;37.41;95184.66;6154305;28;104952;-51
2022/08/08 09:54:08;;;;;;;5.67;5.23;;;;;;;29.15;37.99;95174.66;6163960;28;103918;-49
2022/08/08 09:57:35;;;;;;;4.40;3.80;;;;;;;29.30;36.55;95173.88;6163420;28;102968;-49
2022/08/08 10:01:02;;;;;;;4.07;3.77;;;;;;;29.30;35.74;95170.41;6162678;28;103160;-49
2022/08/08 10:04:21;;;;;;;9.40;4.70;;;;;;;29.36;36.26;95169.78;6152037;28;103944;-49
2022/08/08 10:07:53;;;;;;;4.93;4.53;;;;;;;29.37;35.53;95165.94;6162662;28;102834;-51
2022/08/08 10:11:03;;;;;;;12.07;4.30;;;;;;;28.99;37.58;95158.44;6162916;28;103001;-50
2022/08/08 10:14:33;;;;;;;7.50;5.03;;;;;;;28.68;38.69;95142.25;6152635;28;105044;-50
2022/08/08 10:17:45;;;;;;;8.90;5.93;;;;;;;28.49;38.56;95138.31;6162967;28;103335;-50
2022/08/08 10:21:10;;;;;;;45.90;9.80;;;;;;;28.41;38.21;95139.25;6162595;28;102747;-49
2022/08/08 10:24:32;;;;;;;26.90;8.80;;;;;;;28.38;38.61;95144.50;6157678;28;103191;-50
2022/08/08 10:27:41;;;;;;;21.17;8.30;;;;;;;28.31;38.96;95131.66;6157468;28;104022;-51
2022/08/08 10:30:57;;;;;;;14.87;7.23;;;;;;;28.38;37.67;95137.22;6181420;28;104282;-49
2022/08/08 10:34:07;;;;;;;10.50;3.97;;;;;;;28.43;34.52;95125.44;6187212;28;104356;-50
2022/08/08 10:37:26;;;;;;;3.93;3.03;;;;;;;28.56;33.46;95133.16;6170733;28;103377;-50
2022/08/08 10:40:31;;;;;;;5.10;3.00;;;;;;;28.81;32.73;95122.22;6185601;28;105026;-56
2022/08/08 10:43:38;;;;;;;4.17;3.07;;;;;;;28.98;32.56;95129.94;6185567;28;103348;-47
2022/08/08 10:46:46;;;;;;;6.13;3.10;;;;;;;29.14;33.34;95125.34;6184915;28;103980;-49
2022/08/08 10:49:51;;;;;;;8.13;3.13;;;;;;;29.21;34.31;95125.50;6181064;28;103816;-49
2022/08/08 10:53:05;;;;;;;3.27;2.97;;;;;;;29.36;34.69;95121.22;6183464;28;103091;-48
2022/08/08 10:56:14;;;;;;;4.50;3.17;;;;;;;29.35;33.13;95126.97;6185735;28;103207;-48
2022/08/08 10:59:34;;;;;;;4.20;2.60;;;;;;;29.41;33.19;95117.50;6175285;28;104181;-48
2022/08/08 11:02:44;;;;;;;4.50;3.30;;;;;;;29.43;33.11;95116.03;6184387;28;103150;-52
2022/08/08 11:05:51;;;;;;;5.50;3.10;;;;;;;29.36;31.31;95112.38;6184677;28;103141;-52
2022/08/08 11:09:04;;;;;;;5.03;2.60;;;;;;;29.36;31.32;95106.97;6185659;28;103404;-53
2022/08/08 11:12:17;;;;;;;4.37;3.20;;;;;;;29.24;32.37;95103.28;6169208;28;104144;-54
2022/08/08 11:15:22;;;;;;;4.73;3.60;;;;;;;29.18;33.40;95101.19;6184583;28;103868;-51
2022/08/08 11:18:35;;;;;;;4.33;3.90;;;;;;;29.06;34.14;95101.28;6182843;28;104309;-54
2022/08/08 11:21:44;;;;;;;4.30;3.90;;;;;;;28.94;35.24;95105.63;6171636;28;103139;-57
2022/08/08 11:25:01;;;;;;;7.90;4.17;;;;;;;28.88;36.15;95106.19;6186003;28;103032;-51
2022/08/08 11:28:22;;;;;;;10.30;4.27;;;;;;;28.80;35.69;95099.09;6184683;28;103288;-53
2022/08/08 11:31:32;;;;;;;7.50;4.93;;;;;;;28.73;36.36;95099.72;6185376;28;104056;-53
2022/08/08 11:34:55;;;;;;;17.20;6.90;;;;;;;28.63;36.50;95098.31;6175356;28;103736;-53
2022/08/08 11:38:18;;;;;;;25.23;7.60;;;;;;;28.55;37.18;95096.53;6186574;28;105689;-52
2022/08/08 11:41:43;;;;;;;10.53;5.37;;;;;;;28.73;37.11;95094.31;6177376;28;105660;-52
2022/08/08 11:44:48;;;;;;;17.80;7.40;;;;;;;28.88;36.63;95096.22;6172298;28;103278;-53
2022/08/08 11:47:51;;;;;;;12.07;6.27;;;;;;;29.04;36.29;95093.53;6180584;28;103453;-52
2022/08/08 11:51:09;;;;;;;14.40;7.73;;;;;;;29.05;37.05;95081.63;6168564;28;103628;-53
2022/08/08 11:54:34;;;;;;;83.20;14.50;;;;;;;29.09;36.58;95093.28;6185113;28;105268;-53
2022/08/08 11:57:47;;;;;;;50.27;10.63;;;;;;;29.23;36.43;95090.13;6170565;28;103519;-53
2022/08/08 12:01:04;;;;;;;34.83;9.80;;;;;;;29.30;36.90;95084.91;6183036;28;103143;-52
2022/08/08 12:04:19;;;;;;;10.80;4.90;;;;;;;29.44;34.15;95084.44;6182364;28;103612;-53
2022/08/08 12:07:24;;;;;;;30.10;7.87;;;;;;;29.33;35.41;95080.72;6171033;28;102986;-53
2022/08/08 12:10:31;;;;;;;31.90;8.57;;;;;;;29.35;36.61;95086.53;6182748;28;103221;-53
2022/08/08 12:13:35;;;;;;;11.97;5.60;;;;;;;29.19;35.20;95079.25;6182476;28;104045;-52
2022/08/08 12:16:58;;;;;;;22.00;6.20;;;;;;;29.14;36.42;95082.22;6182012;28;103207;-51
2022/08/08 12:20:03;;;;;;;16.17;8.10;;;;;;;29.01;36.92;95071.88;6171638;28;102917;-52
2022/08/08 12:23:09;;;;;;;16.63;6.07;;;;;;;29.03;36.06;95073.09;6182642;28;103962;-53
2022/08/08 12:26:36;;;;;;;10.20;5.37;;;;;;;28.92;35.83;95059.38;6184215;28;103200;-53
2022/08/08 12:29:55;;;;;;;9.33;4.70;;;;;;;28.84;35.14;95073.00;6161878;28;103583;-54
2022/08/08 12:33:00;;;;;;;7.60;4.63;;;;;;;28.74;36.07;95071.66;6159549;28;104145;-52
2022/08/08 12:36:13;;;;;;;12.30;5.83;;;;;;;28.66;36.66;95069.91;6159986;28;103303;-52
2022/08/08 12:39:27;;;;;;;6.77;4.30;;;;;;;28.65;35.86;95076.41;6160768;28;102996;-52
2022/08/08 12:42:51;;;;;;;6.50;4.33;;;;;;;28.60;35.26;95064.00;6151341;28;105478;-53
2022/08/08 12:45:55;;;;;;;20.93;5.13;;;;;;;28.71;36.48;95066.16;6158335;28;104112;-53
2022/08/08 12:49:06;;;;;;;13.53;5.80;;;;;;;28.85;36.81;95067.28;6158202;28;103942;-54
2022/08/08 12:52:33;;;;;;;12.07;5.10;;;;;;;29.02;36.21;95059.97;6149016;28;102946;-53
2022/08/08 12:55:51;;;;;;;10.17;4.67;;;;;;;29.15;35.75;95064.94;6158490;28;104046;-53
2022/08/08 12:59:17;;;;;;;7.30;4.70;;;;;;;29.27;34.69;95058.66;6162410;28;102874;-53
2022/08/08 13:02:30;;;;;;;4.30;3.87;;;;;;;29.30;34.40;95057.94;6165038;28;103148;-53
2022/08/08 13:05:36;;;;;;;9.37;4.30;;;;;;;29.34;35.24;95039.16;6154405;28;104085;-52
2022/08/08 13:09:08;;;;;;;25.67;6.40;;;;;;;29.34;35.95;95047.22;6164718;28;102828;-52
2022/08/08 13:12:17;;;;;;;27.90;6.60;;;;;;;29.30;36.29;95044.47;6164767;28;104303;-53
2022/08/08 13:15:40;;;;;;;17.83;4.90;;;;;;;29.40;35.12;95035.03;6178311;28;103275;-52
2022/08/08 13:18:57;;;;;;;12.70;4.83;;;;;;;29.35;34.97;95038.00;6188345;28;103984;-53
2022/08/08 13:22:10;;;;;;;13.50;4.50;;;;;;;29.31;34.49;95040.63;6189457;28;104120;-48
2022/08/08 13:25:14;;;;;;;14.20;4.57;;;;;;;29.28;34.10;95037.88;6188578;28;103098;-48
2022/08/08 13:28:28;;;;;;;11.50;4.30;;;;;;;29.15;34.78;95029.09;6164851;28;103404;-48
2022/08/08 13:31:34;;;;;;;9.87;4.50;;;;;;;29.04;34.02;95034.25;6185362;28;103008;-48
2022/08/08 13:34:39;;;;;;;5.57;3.50;;;;;;;28.93;31.83;95038.59;6187445;28;103553;-47
2022/08/08 13:37:44;;;;;;;4.93;3.07;;;;;;;28.82;30.50;95037.56;6181346;28;103402;-48
2022/08/08 13:41:08;;;;;;;4.23;2.70;;;;;;;28.76;31.42;95038.97;6187330;28;105371;-46
2022/08/08 13:44:22;;;;;;;5.60;3.00;;;;;;;28.71;32.22;95033.84;6187687;28;103985;-47
2022/08/08 13:47:26;;;;;;;4.50;3.30;;;;;;;28.68;32.14;95026.44;6186855;28;104192;-50
2022/08/08 13:50:33;;;;;;;6.77;3.00;;;;;;;28.65;32.83;95025.25;6177120;28;104461;-48
2022/08/08 13:53:55;;;;;;;4.27;2.97;;;;;;;28.85;31.30;95023.41;6187899;28;103136;-49
2022/08/08 13:57:08;;;;;;;4.43;2.93;;;;;;;29.00;30.83;95027.97;6187503;28;103992;-48
2022/08/08 14:00:20;;;;;;;4.97;3.37;;;;;;;29.16;31.73;95022.59;6182424;28;103141;-48
2022/08/08 14:03:28;;;;;;;9.53;3.93;;;;;;;29.20;33.39;95024.22;6181739;28;103349;-48
2022/08/08 14:06:58;;;;;;;7.37;3.90;;;;;;;29.32;33.07;95012.53;6187503;28;105599;-52
2022/08/08 14:10:02;;;;;;;5.37;3.23;;;;;;;29.35;32.57;95011.03;6186733;28;102812;-49
2022/08/08 14:13:16;;;;;;;12.73;4.57;;;;;;;29.33;32.69;95014.09;6176775;28;104336;-49
2022/08/08 14:16:47;;;;;;;8.83;4.10;;;;;;;29.43;31.95;95018.16;6187810;28;103706;-50
2022/08/08 14:19:51;;;;;;;7.77;3.57;;;;;;;29.43;32.22;95020.84;6186717;28;104356;-49
2022/08/08 14:23:09;;;;;;;5.13;3.60;;;;;;;29.47;31.74;95021.72;6180083;28;104697;-51
2022/08/08 14:26:32;;;;;;;4.97;3.30;;;;;;;29.37;32.54;95019.56;6186583;28;102902;-50
2022/08/08 14:29:35;;;;;;;6.33;3.67;;;;;;;29.26;32.22;95013.97;6180750;28;103249;-51
2022/08/08 14:32:50;;;;;;;5.53;3.63;;;;;;;29.17;33.35;95016.84;6185315;28;102945;-50
2022/08/08 14:35:59;;;;;;;4.77;4.27;;;;;;;29.05;32.97;95013.47;6165665;28;103006;-50
2022/08/08 14:39:04;;;;;;;7.83;3.80;;;;;;;28.98;33.18;95011.38;6183147;28;103148;-50
2022/08/08 14:42:13;;;;;;;4.20;3.30;;;;;;;28.92;33.70;95007.41;6183960;28;103742;-50
2022/08/08 14:45:19;;;;;;;9.03;4.30;;;;;;;28.87;34.21;95011.13;6178734;28;103115;-50
2022/08/08 14:48:45;;;;;;;5.97;4.30;;;;;;;28.84;34.21;95014.53;6180271;28;103935;-50
2022/08/08 14:52:07;;;;;;;8.40;4.23;;;;;;;28.81;34.15;95009.06;6184306;28;102955;-50
2022/08/08 14:55:12;;;;;;;7.73;3.70;;;;;;;28.95;34.01;95010.19;6182437;28;102988;-49
2022/08/08 14:58:18;;;;;;;6.43;4.10;;;;;;;29.10;34.53;95011.31;6173383;28;103212;-50
2022/08/08 15:01:27;;;;;;;4.23;3.70;;;;;;;28.87;35.35;95010.34;6185834;28;104040;-50
2022/08/08 15:04:45;;;;;;;4.40;3.77;;;;;;;28.23;35.22;95009.59;6180295;28;104425;-50
2022/08/08 15:07:50;;;;;;;6.80;4.63;;;;;;;28.00;35.27;95003.97;6179793;28;104128;-51
2022/08/08 15:11:04;;;;;;;4.63;3.90;;;;;;;27.55;35.93;95014.22;6180444;28;103098;-49
2022/08/08 15:14:08;;;;;;;51.67;26.50;;;;;;;27.29;34.86;95012.75;6181563;28;103474;-50
2022/08/08 15:17:16;;;;;;;168.90;96.30;;;;;;;27.06;35.15;95006.28;6184122;28;103003;-49
2022/08/08 15:20:21;;;;;;;306.80;160.93;;;;;;;26.68;34.72;95002.03;6172770;28;103094;-49
2022/08/08 15:23:27;;;;;;;333.47;191.93;;;;;;;26.63;34.94;95013.03;6181507;28;104394;-50
2022/08/08 15:26:38;;;;;;;363.83;205.00;;;;;;;26.34;34.84;95010.50;6182952;28;103129;-50
2022/08/08 15:29:41;;;;;;;326.13;191.90;;;;;;;26.23;35.08;94999.44;6182474;28;104126;-49
2022/08/08 15:32:45;;;;;;;320.93;179.47;;;;;;;26.04;35.62;95007.19;6171778;28;103214;-50
2022/08/08 15:35:50;;;;;;;296.73;164.67;;;;;;;26.06;35.28;95010.34;6180451;28;104171;-51
2022/08/08 15:38:53;;;;;;;289.90;155.50;;;;;;;25.92;35.63;95005.25;6181169;28;104211;-49
2022/08/08 15:41:58;;;;;;;267.80;149.67;;;;;;;25.82;35.82;94995.72;6177884;28;103309;-50
2022/08/08 15:45:01;;;;;;;258.20;145.63;;;;;;;25.57;35.67;94973.44;6175735;28;102901;-49
2022/08/08 15:48:05;;;;;;;230.50;138.90;;;;;;;25.68;35.93;95001.38;6175425;28;104285;-50
2022/08/08 15:51:21;;;;;;;230.83;134.33;;;;;;;25.58;35.33;94993.75;6170477;28;103070;-50
2022/08/08 15:54:35;;;;;;;226.73;128.60;;;;;;;25.75;35.48;95008.88;6160378;28;103017;-50
2022/08/08 15:57:42;;;;;;;209.53;122.60;;;;;;;25.92;36.13;94994.53;6181778;28;103074;-49
2022/08/08 16:00:47;;;;;;;197.50;118.47;;;;;;;26.17;35.48;94998.84;6170631;28;104128;-50
2022/08/08 16:03:52;;;;;;;184.57;113.27;;;;;;;26.43;35.88;95000.47;6177764;28;103082;-49
2022/08/08 16:06:57;;;;;;;176.50;105.77;;;;;;;26.52;35.75;95004.59;6172645;28;102982;-49
2022/08/08 16:10:00;;;;;;;140.13;87.07;;;;;;;26.79;35.67;95005.06;6182768;28;104405;-50
2022/08/08 16:13:23;;;;;;;130.83;79.10;;;;;;;26.94;36.04;95011.66;6180084;28;105745;-51
2022/08/08 16:16:47;;;;;;;79.33;49.07;;;;;;;27.08;35.45;95009.41;6170054;28;105359;-48
2022/08/08 16:19:52;;;;;;;59.50;38.90;;;;;;;27.13;35.15;95009.94;6181297;28;104541;-49
2022/08/08 16:23:04;;;;;;;48.87;32.60;;;;;;;27.61;35.07;95013.66;6180681;28;103994;-50
2022/08/08 16:26:13;;;;;;;29.03;22.13;;;;;;;28.00;34.20;95009.38;6184153;28;104013;-48
2022/08/08 16:29:24;;;;;;;36.63;26.00;;;;;;;28.03;34.32;95015.97;6160902;28;103179;-49
2022/08/08 16:32:48;;;;;;;36.30;27.70;;;;;;;28.14;35.13;95018.94;6176895;28;105633;-49
2022/08/08 16:35:51;;;;;;;22.60;17.97;;;;;;;28.15;35.51;95031.25;6181521;28;103156;-48
2022/08/08 16:38:57;;;;;;;17.30;12.80;;;;;;;28.16;34.89;95027.44;6179975;28;104029;-49
2022/08/08 16:42:02;;;;;;;14.87;13.33;;;;;;;28.14;35.06;95032.38;6178670;28;103000;-49
2022/08/08 16:45:07;;;;;;;11.07;10.17;;;;;;;28.13;34.65;95026.22;6184320;28;102914;-49
2022/08/08 16:48:31;;;;;;;12.40;10.27;;;;;;;28.11;35.14;95036.56;6175702;28;105783;-49
2022/08/08 16:51:40;;;;;;;9.80;9.03;;;;;;;28.07;34.31;95042.97;6172218;28;102942;-49
2022/08/08 16:55:05;;;;;;;8.30;7.60;;;;;;;28.05;34.10;95044.06;6184082;28;105223;-49
2022/08/08 16:58:28;;;;;;;8.30;7.70;;;;;;;28.07;33.79;95051.06;6185050;28;105000;-49
2022/08/08 17:01:36;;;;;;;8.90;8.20;;;;;;;28.10;34.92;95047.66;6176704;28;104447;-49
2022/08/08 17:04:41;;;;;;;9.67;8.87;;;;;;;28.30;34.27;95057.41;6179103;28;103360;-49
2022/08/08 17:07:47;;;;;;;8.93;8.10;;;;;;;28.51;33.66;95066.06;6182642;28;105385;-50
2022/08/08 17:10:54;;;;;;;9.33;8.43;;;;;;;28.63;33.50;95063.28;6184685;28;103081;-50
2022/08/08 17:14:12;;;;;;;8.67;7.67;;;;;;;28.79;33.03;95065.22;6160850;28;103086;-47
2022/08/08 17:17:21;;;;;;;8.13;7.33;;;;;;;28.88;33.63;95063.88;6182964;28;102980;-49
2022/08/08 17:20:44;;;;;;;8.83;8.13;;;;;;;28.96;33.63;95064.84;6177036;28;105074;-50
2022/08/08 17:23:48;;;;;;;9.57;8.77;;;;;;;29.02;33.46;95071.53;6180589;28;103382;-49
2022/08/08 17:27:06;;;;;;;8.40;7.50;;;;;;;29.08;33.59;95072.09;6175801;28;103990;-49
2022/08/08 17:30:13;;;;;;;8.70;8.00;;;;;;;29.11;33.04;95079.47;6180744;28;103301;-49
2022/08/08 17:33:31;;;;;;;8.63;7.93;;;;;;;29.13;33.09;95079.91;6176204;28;104045;-50
2022/08/08 17:36:54;;;;;;;8.93;8.07;;;;;;;29.20;33.18;95078.13;6173056;28;104323;-49
2022/08/08 17:40:06;;;;;;;8.00;7.23;;;;;;;29.24;33.37;95087.09;6184022;28;104208;-49
2022/08/08 17:43:18;;;;;;;9.00;8.27;;;;;;;29.18;34.20;95091.19;6181311;28;102886;-51
2022/08/08 17:46:38;;;;;;;10.80;7.97;;;;;;;28.69;37.09;95092.66;6185537;28;102897;-49
2022/08/08 17:49:42;;;;;;;9.13;8.43;;;;;;;27.89;36.77;95088.19;6161743;28;102941;-56
2022/08/08 17:52:45;;;;;;;9.03;8.33;;;;;;;27.42;36.36;95097.63;6179809;28;103079;-47
2022/08/08 17:55:49;;;;;;;9.00;8.17;;;;;;;27.10;36.02;95101.97;6190610;28;103309;-47
2022/08/08 17:59:11;;;;;;;8.53;7.83;;;;;;;27.36;34.35;95096.25;6175386;28;103828;-48
2022/08/08 18:02:15;;;;;;;8.30;7.60;;;;;;;27.18;33.78;95105.66;6182437;28;103973;-46
2022/08/08 18:05:31;;;;;;;9.00;8.20;;;;;;;26.88;33.58;95107.78;6178253;28;103083;-47
2022/08/08 18:08:51;;;;;;;8.37;7.77;;;;;;;26.80;32.99;95114.03;6183718;28;103254;-47
2022/08/08 18:11:59;;;;;;;7.60;7.07;;;;;;;26.59;32.67;95119.47;6162763;28;103889;-47
2022/08/08 18:15:05;;;;;;;7.07;6.57;;;;;;;26.40;32.91;95122.66;6183358;28;104587;-47
2022/08/08 18:18:11;;;;;;;7.87;7.23;;;;;;;26.20;33.36;95126.94;6181873;28;103363;-57
2022/08/08 18:21:33;;;;;;;7.60;7.00;;;;;;;25.92;33.52;95128.59;6176143;28;104345;-50
2022/08/08 18:24:56;;;;;;;7.80;7.23;;;;;;;25.67;33.77;95138.41;6185138;28;102891;-47